Time;durP1;ratioP1;P1;durP2;ratioP2;P2;SDS_P1;SDS_P2;PMS_P1;PMS_P2;Temp;Humidity;BMP_temperature;BMP_pressure;BME280_temperature;BME280_humidity;BME280_pressure;Samples;Min_cycle;Max_cycle;Signal;HPM_P1;HPM_P2
2022/06/27 00:00:20;;;;;;;3.07;1.43;;;18.90;99.90;;;;;;5081121;28;20281;-73
2022/06/27 00:02:50;;;;;;;2.93;1.33;;;18.90;99.90;;;;;;5084153;28;20558;-77
2022/06/27 00:05:19;;;;;;;4.70;1.50;;;18.90;99.90;;;;;;5087396;28;20211;-73
2022/06/27 00:07:48;;;;;;;2.67;1.40;;;18.80;99.90;;;;;;5084765;28;20229;-76
2022/06/27 00:10:16;;;;;;;1.47;1.37;;;18.80;99.90;;;;;;5085261;28;20208;-76
2022/06/27 00:12:44;;;;;;;2.57;1.37;;;18.80;99.90;;;;;;5086585;28;20204;-74
2022/06/27 00:15:12;;;;;;;1.97;1.43;;;18.80;99.90;;;;;;5085346;28;20239;-75
2022/06/27 00:17:41;;;;;;;4.27;1.33;;;18.70;99.90;;;;;;5088693;28;20231;-75
2022/06/27 00:20:12;;;;;;;4.23;1.50;;;18.70;99.90;;;;;;5088818;28;20246;-76
2022/06/27 00:22:40;;;;;;;3.23;1.60;;;18.60;99.90;;;;;;5086041;28;20273;-78
2022/06/27 00:25:10;;;;;;;2.90;1.50;;;18.60;99.90;;;;;;5089182;28;20204;-76
2022/06/27 00:27:39;;;;;;;1.70;1.40;;;18.50;99.90;;;;;;5086202;28;20211;-76
2022/06/27 00:30:08;;;;;;;1.90;1.60;;;18.50;99.90;;;;;;5078445;28;20207;-76
2022/06/27 00:32:36;;;;;;;3.37;1.73;;;18.50;99.90;;;;;;5081948;28;20291;-77
2022/06/27 00:35:06;;;;;;;2.10;1.53;;;18.40;99.90;;;;;;5086647;28;20250;-79
2022/06/27 00:37:36;;;;;;;2.63;1.80;;;18.40;99.90;;;;;;5082246;28;20260;-75
2022/06/27 00:40:06;;;;;;;1.90;1.70;;;18.40;99.90;;;;;;5086063;28;20216;-79
2022/06/27 00:42:35;;;;;;;3.10;1.60;;;18.30;99.90;;;;;;5083715;28;20230;-78
2022/06/27 00:45:05;;;;;;;2.53;1.57;;;18.30;99.90;;;;;;5081843;28;20207;-77
2022/06/27 00:47:33;;;;;;;2.10;1.60;;;18.30;99.90;;;;;;5084569;28;20231;-77
2022/06/27 00:50:01;;;;;;;2.10;1.90;;;18.30;99.90;;;;;;5091103;28;20230;-77
2022/06/27 00:52:30;;;;;;;3.13;1.83;;;18.20;99.90;;;;;;5088289;28;20210;-75
2022/06/27 00:54:59;;;;;;;2.17;1.80;;;18.30;99.90;;;;;;5079321;28;20296;-75
2022/06/27 00:57:29;;;;;;;2.87;2.00;;;18.40;99.90;;;;;;5079694;28;20262;-77
2022/06/27 00:59:57;;;;;;;3.17;1.97;;;18.40;99.90;;;;;;5072027;28;20232;-76
2022/06/27 01:02:25;;;;;;;2.57;1.83;;;18.40;99.90;;;;;;5077539;28;20207;-77
2022/06/27 01:04:55;;;;;;;5.10;2.00;;;18.40;99.90;;;;;;5075494;28;20294;-76
2022/06/27 01:07:23;;;;;;;3.40;2.07;;;18.40;99.90;;;;;;5074606;28;20259;-76
2022/06/27 01:09:52;;;;;;;4.47;2.10;;;18.40;99.90;;;;;;5074911;28;20238;-76
2022/06/27 01:12:23;;;;;;;1.70;1.60;;;18.40;99.90;;;;;;5077197;28;20715;-78
2022/06/27 01:14:51;;;;;;;2.50;1.90;;;18.40;99.90;;;;;;5080075;28;20211;-76
2022/06/27 01:17:20;;;;;;;3.77;2.23;;;18.30;99.90;;;;;;5071222;28;20235;-76
2022/06/27 01:19:48;;;;;;;3.20;1.90;;;18.20;99.90;;;;;;5077044;28;20208;-77
2022/06/27 01:22:19;;;;;;;2.37;1.90;;;18.20;99.90;;;;;;5077931;28;20255;-81
2022/06/27 01:24:47;;;;;;;2.30;1.70;;;18.20;99.90;;;;;;5079837;28;20265;-76
2022/06/27 01:27:16;;;;;;;4.87;1.90;;;18.20;99.90;;;;;;5068262;28;20223;-75
2022/06/27 01:29:44;;;;;;;2.10;1.90;;;18.10;99.90;;;;;;5076259;28;20234;-76
2022/06/27 01:32:12;;;;;;;3.20;2.23;;;18.10;99.90;;;;;;5076085;28;20235;-75
2022/06/27 01:34:41;;;;;;;3.73;1.93;;;18.00;99.90;;;;;;5074797;28;20679;-78
2022/06/27 01:37:09;;;;;;;2.57;1.77;;;17.90;99.90;;;;;;5076053;28;20304;-75
2022/06/27 01:39:39;;;;;;;2.83;1.80;;;17.80;99.90;;;;;;5075269;28;20237;-74
2022/06/27 01:42:07;;;;;;;2.67;2.07;;;17.80;99.90;;;;;;5074169;28;20215;-76
2022/06/27 01:44:35;;;;;;;2.77;2.03;;;17.70;99.90;;;;;;5081614;28;20203;-75
2022/06/27 01:47:06;;;;;;;2.20;2.00;;;17.60;99.90;;;;;;5081436;28;20226;-78
2022/06/27 01:49:36;;;;;;;4.63;2.10;;;17.60;99.90;;;;;;5081242;28;20320;-76
2022/06/27 01:52:06;;;;;;;3.67;2.17;;;17.50;99.90;;;;;;5081551;28;20213;-76
2022/06/27 01:54:36;;;;;;;2.47;2.10;;;17.50;99.90;;;;;;5083325;28;20206;-76
2022/06/27 01:57:07;;;;;;;2.93;2.10;;;17.40;99.90;;;;;;5079794;28;20273;-74
2022/06/27 01:59:37;;;;;;;3.83;2.00;;;17.40;99.90;;;;;;5081629;28;20224;-77
2022/06/27 02:02:06;;;;;;;2.33;1.90;;;17.30;99.90;;;;;;5078354;28;20235;-79
2022/06/27 02:04:37;;;;;;;3.60;2.00;;;17.30;99.90;;;;;;5076233;28;20294;-79
2022/06/27 02:07:06;;;;;;;3.40;2.30;;;17.30;99.90;;;;;;5081105;28;20216;-77
2022/06/27 02:09:35;;;;;;;2.87;2.10;;;17.20;99.90;;;;;;5078852;28;20243;-77
2022/06/27 02:12:19;;;;;;;3.13;2.20;;;17.20;99.90;;;;;;5079706;28;20208;-79
2022/06/27 02:14:49;;;;;;;3.20;2.00;;;17.20;99.90;;;;;;5080285;28;20264;-76
2022/06/27 02:17:18;;;;;;;2.87;2.20;;;17.20;99.90;;;;;;5085518;28;20279;-77
2022/06/27 02:19:46;;;;;;;2.50;2.30;;;17.20;99.90;;;;;;5081138;28;20202;-76
2022/06/27 02:22:15;;;;;;;2.93;2.00;;;17.20;99.90;;;;;;5079905;28;20249;-77
2022/06/27 02:24:44;;;;;;;6.20;2.30;;;17.10;99.90;;;;;;5078128;28;20715;-76
2022/06/27 02:27:14;;;;;;;3.43;2.20;;;17.10;99.90;;;;;;5079125;28;20200;-76
2022/06/27 02:29:42;;;;;;;3.80;2.20;;;17.10;99.90;;;;;;5076842;28;20211;-78
2022/06/27 02:32:11;;;;;;;4.47;2.43;;;17.00;99.90;;;;;;5079001;28;20881;-76
2022/06/27 02:34:39;;;;;;;2.63;2.37;;;17.00;99.90;;;;;;5087006;28;20207;-76
2022/06/27 02:37:08;;;;;;;3.03;2.40;;;17.00;99.90;;;;;;5078712;28;20652;-77
2022/06/27 02:39:40;;;;;;;2.50;2.30;;;16.90;99.90;;;;;;5080557;28;20307;-75
2022/06/27 02:42:09;;;;;;;2.93;2.43;;;16.90;99.90;;;;;;5086753;28;20219;-78
2022/06/27 02:44:40;;;;;;;4.10;2.30;;;16.90;99.90;;;;;;5078793;28;20241;-74
2022/06/27 02:47:08;;;;;;;3.50;2.30;;;16.90;99.90;;;;;;5079403;28;20257;-78
2022/06/27 02:49:36;;;;;;;2.60;2.33;;;16.90;99.90;;;;;;5079564;28;20200;-79
2022/06/27 02:52:10;;;;;;;2.83;2.30;;;16.80;99.90;;;;;;5074221;28;20294;-76
2022/06/27 02:54:43;;;;;;;3.97;2.50;;;16.80;99.90;;;;;;5072448;28;20257;-77
2022/06/27 02:57:19;;;;;;;6.17;2.73;;;16.80;99.90;;;;;;5076272;28;20625;-80
2022/06/27 02:59:50;;;;;;;5.30;2.50;;;16.90;99.90;;;;;;5073999;28;20284;-77
2022/06/27 03:02:19;;;;;;;4.63;2.67;;;16.90;99.90;;;;;;5076510;28;20207;-74
2022/06/27 03:04:49;;;;;;;4.80;2.40;;;17.10;99.90;;;;;;5073333;28;20214;-78
2022/06/27 03:07:17;;;;;;;4.23;2.33;;;17.10;99.90;;;;;;5075568;28;20294;-73
2022/06/27 03:09:46;;;;;;;4.43;2.30;;;17.10;99.90;;;;;;5075699;28;20200;-75
2022/06/27 03:12:14;;;;;;;3.50;2.33;;;17.20;99.90;;;;;;5080323;28;20274;-76
2022/06/27 03:14:43;;;;;;;3.30;2.27;;;17.20;99.90;;;;;;5082534;28;20210;-77
2022/06/27 03:17:13;;;;;;;3.43;2.20;;;17.20;99.90;;;;;;5079722;28;20596;-79
2022/06/27 03:19:41;;;;;;;8.97;2.37;;;17.20;99.90;;;;;;5076818;28;20285;-74
2022/06/27 03:22:10;;;;;;;3.00;2.23;;;17.20;99.90;;;;;;5089612;28;20211;-78
2022/06/27 03:24:38;;;;;;;3.47;2.23;;;17.20;99.90;;;;;;5079673;28;20211;-79
2022/06/27 03:27:06;;;;;;;2.80;2.20;;;17.20;99.90;;;;;;5092595;28;20756;-79
2022/06/27 03:29:35;;;;;;;2.50;2.30;;;17.20;99.90;;;;;;5079900;28;20207;-76
2022/06/27 03:32:03;;;;;;;4.30;2.20;;;17.20;99.90;;;;;;5081181;28;20235;-75
2022/06/27 03:34:33;;;;;;;2.93;2.20;;;17.20;99.90;;;;;;5072614;28;20207;-76
2022/06/27 03:37:01;;;;;;;2.43;2.23;;;17.20;99.90;;;;;;5070140;28;20235;-75
2022/06/27 03:39:29;;;;;;;3.37;2.40;;;17.10;99.90;;;;;;5070128;28;20219;-75
2022/06/27 03:41:59;;;;;;;4.87;2.30;;;17.10;99.90;;;;;;5072703;28;20273;-77
2022/06/27 03:44:29;;;;;;;6.43;2.70;;;17.10;99.90;;;;;;5064607;28;20291;-76
2022/06/27 03:46:57;;;;;;;3.97;2.30;;;17.20;99.90;;;;;;5061825;28;20243;-75
2022/06/27 03:52:12;;;;;;;4.40;2.40;;;17.10;99.90;;;;;;5073911;28;20257;-74
2022/06/27 03:54:40;;;;;;;3.00;2.23;;;17.10;99.90;;;;;;5064753;28;20280;-75
2022/06/27 03:57:08;;;;;;;2.27;1.97;;;17.10;99.90;;;;;;5072619;28;20246;-75
2022/06/27 03:59:36;;;;;;;5.33;2.50;;;17.10;99.90;;;;;;5084295;28;20258;-74
2022/06/27 04:02:05;;;;;;;3.23;2.20;;;17.10;99.90;;;;;;5073825;28;20615;-74
2022/06/27 04:04:34;;;;;;;2.43;2.13;;;17.10;99.90;;;;;;5081691;28;20224;-74
2022/06/27 04:07:03;;;;;;;4.47;2.30;;;17.00;99.90;;;;;;5077060;28;20257;-74
2022/06/27 04:09:32;;;;;;;3.93;2.50;;;17.00;99.90;;;;;;5079843;28;20289;-75
2022/06/27 04:12:00;;;;;;;4.63;2.57;;;17.00;99.90;;;;;;5076369;28;20239;-75
2022/06/27 04:14:28;;;;;;;6.03;2.93;;;17.00;99.90;;;;;;5077455;28;20218;-76
2022/06/27 04:16:59;;;;;;;3.00;2.60;;;17.10;99.90;;;;;;5075232;28;20627;-73
2022/06/27 04:19:28;;;;;;;5.97;3.00;;;17.10;99.90;;;;;;5075290;28;20230;-76
2022/06/27 04:21:56;;;;;;;3.70;2.80;;;17.10;99.90;;;;;;5074955;28;20215;-75
2022/06/27 04:24:24;;;;;;;2.83;2.40;;;17.00;99.90;;;;;;5072828;28;20211;-75
2022/06/27 04:26:54;;;;;;;4.50;2.70;;;17.10;99.90;;;;;;5077982;28;20281;-75
2022/06/27 04:29:23;;;;;;;5.00;2.50;;;17.10;99.90;;;;;;5076752;28;20295;-74
2022/06/27 04:31:51;;;;;;;4.93;2.60;;;17.10;99.90;;;;;;5073762;28;20729;-75
2022/06/27 04:34:19;;;;;;;2.87;2.47;;;17.20;99.90;;;;;;5076200;28;20215;-75
2022/06/27 04:36:47;;;;;;;3.27;2.30;;;17.20;99.90;;;;;;5073378;28;20623;-75
2022/06/27 04:39:17;;;;;;;6.10;2.40;;;17.30;99.90;;;;;;5075027;28;20263;-74
2022/06/27 04:41:46;;;;;;;4.47;2.37;;;17.40;99.90;;;;;;5073867;28;20219;-75
2022/06/27 04:44:18;;;;;;;4.03;2.30;;;17.40;99.90;;;;;;5066569;28;20207;-75
2022/06/27 04:46:48;;;;;;;3.83;2.50;;;17.50;99.90;;;;;;5057540;28;20253;-74
2022/06/27 04:49:19;;;;;;;4.57;2.50;;;17.50;99.90;;;;;;5063705;28;20195;-74
2022/06/27 04:51:49;;;;;;;6.07;2.50;;;17.60;99.90;;;;;;5078486;28;20622;-74
2022/06/27 04:54:18;;;;;;;3.60;2.10;;;17.60;99.90;;;;;;5081955;28;20242;-75
2022/06/27 04:56:46;;;;;;;2.70;2.10;;;17.70;99.90;;;;;;5079262;28;20207;-74
2022/06/27 04:59:16;;;;;;;5.37;2.37;;;17.80;99.90;;;;;;5079441;28;20258;-76
2022/06/27 05:01:44;;;;;;;4.40;2.10;;;17.90;99.90;;;;;;5078573;28;20207;-75
2022/06/27 05:04:13;;;;;;;4.10;2.40;;;18.00;99.90;;;;;;5075809;28;20696;-75
2022/06/27 05:06:41;;;;;;;5.50;2.87;;;18.00;99.90;;;;;;5071193;28;20249;-75
2022/06/27 05:09:09;;;;;;;4.30;2.70;;;18.10;99.90;;;;;;5074608;28;20207;-75
2022/06/27 05:11:37;;;;;;;4.83;3.07;;;18.30;99.90;;;;;;5076466;28;20294;-74
2022/06/27 05:14:05;;;;;;;5.17;2.80;;;18.50;99.90;;;;;;5071769;28;20257;-75
2022/06/27 05:16:36;;;;;;;6.07;2.80;;;18.60;99.90;;;;;;5073699;28;20666;-75
2022/06/27 05:19:04;;;;;;;5.00;2.50;;;18.80;99.90;;;;;;5073360;28;20223;-75
2022/06/27 05:21:43;;;;;;;6.37;2.23;;;19.00;99.90;;;;;;5072985;28;20249;-74
2022/06/27 05:24:12;;;;;;;3.60;1.93;;;19.00;99.90;;;;;;5078848;28;20328;-75
2022/06/27 05:26:40;;;;;;;4.53;2.00;;;19.20;99.90;;;;;;5078350;28;20209;-75
2022/06/27 05:29:09;;;;;;;4.47;2.23;;;19.30;99.90;;;;;;5079072;28;20207;-74
2022/06/27 05:31:39;;;;;;;2.70;1.80;;;19.40;99.90;;;;;;5077234;28;20211;-75
2022/06/27 05:34:07;;;;;;;2.50;2.10;;;19.60;99.90;;;;;;5076757;28;20295;-74
2022/06/27 05:36:35;;;;;;;5.20;1.90;;;19.60;99.90;;;;;;5075271;28;20295;-74
2022/06/27 05:39:05;;;;;;;2.27;2.00;;;19.70;99.90;;;;;;5075287;28;20800;-74
2022/06/27 05:41:34;;;;;;;2.37;1.90;;;19.80;99.90;;;;;;5081630;28;20219;-74
2022/06/27 05:44:03;;;;;;;3.50;1.97;;;19.90;99.90;;;;;;5084667;28;20675;-74
2022/06/27 05:46:31;;;;;;;3.23;2.17;;;20.00;99.90;;;;;;5081548;28;20253;-75
2022/06/27 05:49:02;;;;;;;2.33;2.13;;;20.20;99.90;;;;;;5077948;28;20657;-77
2022/06/27 05:51:30;;;;;;;5.40;2.00;;;20.40;99.90;;;;;;5069950;28;20306;-77
2022/06/27 05:54:00;;;;;;;2.90;1.90;;;20.80;99.90;;;;;;5076760;28;20207;-74
2022/06/27 05:56:30;;;;;;;4.50;1.93;;;21.60;99.90;;;;;;5076518;28;20633;-77
2022/06/27 05:58:58;;;;;;;2.20;1.80;;;22.90;99.90;;;;;;5078391;28;20214;-78
2022/06/27 06:01:27;;;;;;;4.20;1.80;;;24.30;99.90;;;;;;5072650;28;20223;-77
2022/06/27 06:03:56;;;;;;;2.20;1.70;;;25.50;99.90;;;;;;5075589;28;20669;-80
2022/06/27 06:06:28;;;;;;;3.03;1.67;;;26.70;99.90;;;;;;5077638;28;20227;-78
2022/06/27 06:08:57;;;;;;;3.97;1.60;;;27.30;99.90;;;;;;5073447;28;20669;-78
2022/06/27 06:11:25;;;;;;;5.43;2.00;;;28.00;99.90;;;;;;5076457;28;20235;-76
2022/06/27 06:13:54;;;;;;;3.67;1.55;;;29.00;99.90;;;;;;5073564;28;20235;-77
2022/06/27 06:16:22;;;;;;;2.15;1.40;;;29.50;99.90;;;;;;5072470;28;20696;-80
2022/06/27 06:18:52;;;;;;;4.72;1.60;;;29.90;99.90;;;;;;5074061;28;20636;-75
2022/06/27 06:21:20;;;;;;;2.63;1.50;;;30.50;99.90;;;;;;5076798;28;20227;-77
2022/06/27 06:23:51;;;;;;;4.68;1.60;;;30.80;99.90;;;;;;5078985;28;20253;-77
2022/06/27 06:26:20;;;;;;;5.15;1.55;;;31.50;98.60;;;;;;5071560;28;20601;-77
2022/06/27 06:28:53;;;;;;;2.55;1.52;;;31.80;97.60;;;;;;5074276;28;20282;-77
2022/06/27 06:31:24;;;;;;;1.67;1.58;;;31.70;96.60;;;;;;5070371;28;20645;-76
2022/06/27 06:33:54;;;;;;;2.58;1.70;;;31.80;95.60;;;;;;5078927;28;20716;-76
2022/06/27 06:36:23;;;;;;;2.58;1.50;;;32.10;95.40;;;;;;5080681;28;20284;-76
2022/06/27 06:38:54;;;;;;;3.65;1.80;;;32.00;95.10;;;;;;5084424;28;20234;-78
2022/06/27 06:41:22;;;;;;;4.18;1.83;;;31.70;94.00;;;;;;5078813;28;20239;-77
2022/06/27 06:43:50;;;;;;;2.40;1.60;;;31.50;94.60;;;;;;5085176;28;20223;-75
2022/06/27 06:46:19;;;;;;;3.22;1.50;;;32.60;93.50;;;;;;5075991;28;20678;-78
2022/06/27 06:48:48;;;;;;;3.08;1.60;;;32.80;93.80;;;;;;5080863;28;20257;-79
2022/06/27 06:51:18;;;;;;;2.42;1.80;;;33.80;91.20;;;;;;5078545;28;20203;-75
2022/06/27 06:53:46;;;;;;;3.60;1.80;;;33.80;91.90;;;;;;5078065;28;20701;-76
2022/06/27 06:56:16;;;;;;;2.20;1.80;;;34.20;90.40;;;;;;5081021;28;20226;-75
2022/06/27 06:58:44;;;;;;;3.10;1.70;;;34.40;86.90;;;;;;5084404;28;20211;-77
2022/06/27 07:01:12;;;;;;;2.42;1.95;;;34.00;88.90;;;;;;5076442;28;20306;-77
2022/06/27 07:03:41;;;;;;;2.80;2.00;;;34.40;89.20;;;;;;5075850;28;20261;-77
2022/06/27 07:06:09;;;;;;;3.80;1.92;;;34.00;85.00;;;;;;5071723;28;20199;-76
2022/06/27 07:08:39;;;;;;;3.00;1.83;;;34.00;84.20;;;;;;5073696;28;20204;-75
2022/06/27 07:11:08;;;;;;;3.28;1.70;;;34.20;86.20;;;;;;5078017;28;20614;-77
2022/06/27 07:13:39;;;;;;;1.80;1.65;;;34.30;84.00;;;;;;5078140;28;20204;-77
2022/06/27 07:16:15;;;;;;;3.63;1.50;;;34.60;84.60;;;;;;5074430;28;20695;-77
2022/06/27 07:18:44;;;;;;;2.20;1.80;;;35.40;82.20;;;;;;5078286;28;20207;-78
2022/06/27 07:21:13;;;;;;;3.10;2.00;;;34.90;82.60;;;;;;5073548;28;20227;-78
2022/06/27 07:23:42;;;;;;;3.63;1.75;;;34.90;84.80;;;;;;5079848;28;20199;-77
2022/06/27 07:26:10;;;;;;;4.90;1.90;;;35.50;81.70;;;;;;5071674;28;20290;-78
2022/06/27 07:28:44;;;;;;;3.00;2.03;;;36.00;79.90;;;;;;5080399;28;20203;-77
2022/06/27 07:31:13;;;;;;;5.60;2.00;;;36.10;79.70;;;;;;5076353;28;20207;-80
2022/06/27 07:33:42;;;;;;;3.42;2.00;;;35.50;80.20;;;;;;5080273;28;20257;-78
2022/06/27 07:36:14;;;;;;;2.42;1.90;;;35.30;78.90;;;;;;5080818;28;20261;-81
2022/06/27 07:38:43;;;;;;;4.15;1.80;;;35.20;76.70;;;;;;5081164;28;20203;-79
2022/06/27 07:41:13;;;;;;;3.13;2.00;;;35.30;79.20;;;;;;5075218;28;20704;-78
2022/06/27 07:43:44;;;;;;;3.75;2.05;;;35.50;78.90;;;;;;5077071;28;20200;-80
2022/06/27 07:46:15;;;;;;;2.22;1.70;;;36.10;79.40;;;;;;5074138;28;20219;-81
2022/06/27 07:48:43;;;;;;;4.50;2.20;;;36.00;78.20;;;;;;5072864;28;20218;-79
2022/06/27 07:51:16;;;;;;;3.30;2.10;;;35.70;76.70;;;;;;5072193;28;20215;-77
2022/06/27 07:53:47;;;;;;;3.72;1.90;;;35.60;78.10;;;;;;5073618;28;20248;-78
2022/06/27 07:56:17;;;;;;;4.10;1.70;;;36.10;78.20;;;;;;5071801;28;20211;-78
2022/06/27 07:59:09;;;;;;;2.75;2.05;;;36.30;78.60;;;;;;5063398;28;20216;-76
2022/06/27 08:01:38;;;;;;;7.00;2.50;;;36.70;74.80;;;;;;5061374;28;20231;-75
2022/06/27 08:04:07;;;;;;;5.47;2.10;;;36.30;78.60;;;;;;5060207;28;20215;-75
2022/06/27 08:06:36;;;;;;;3.70;2.20;;;36.20;75.30;;;;;;5066988;28;20216;-78
2022/06/27 08:09:06;;;;;;;3.28;2.10;;;36.40;73.20;;;;;;5056080;28;20208;-77
2022/06/27 08:11:36;;;;;;;6.30;2.03;;;36.50;73.90;;;;;;5057921;28;20196;-76
2022/06/27 08:14:05;;;;;;;2.47;1.77;;;36.00;77.20;;;;;;5057043;28;20235;-76
2022/06/27 08:16:36;;;;;;;2.67;1.88;;;37.00;76.60;;;;;;5069422;28;20200;-77
2022/06/27 08:19:07;;;;;;;3.05;1.80;;;36.80;75.70;;;;;;5069373;28;20614;-76
2022/06/27 08:21:37;;;;;;;2.97;2.03;;;36.40;77.70;;;;;;5077978;28;20635;-74
2022/06/27 08:24:07;;;;;;;4.20;1.88;;;36.20;75.80;;;;;;5064912;28;20204;-75
2022/06/27 08:26:37;;;;;;;3.28;2.08;;;36.00;77.50;;;;;;5068646;28;20211;-76
2022/06/27 08:29:05;;;;;;;4.07;2.00;;;36.30;77.60;;;;;;5071461;28;20276;-76
2022/06/27 08:31:37;;;;;;;2.92;2.00;;;36.50;75.30;;;;;;5075874;28;20568;-75
2022/06/27 08:34:06;;;;;;;2.40;1.77;;;36.40;74.70;;;;;;5073911;28;20194;-77
2022/06/27 08:36:36;;;;;;;3.90;2.10;;;36.50;76.70;;;;;;5070832;28;20265;-79
2022/06/27 08:39:07;;;;;;;4.20;1.80;;;36.30;75.00;;;;;;5076725;28;20539;-77
2022/06/27 08:41:36;;;;;;;2.35;1.90;;;36.10;78.00;;;;;;5071399;28;20277;-78
2022/06/27 08:44:06;;;;;;;3.05;1.85;;;36.50;78.30;;;;;;5068834;28;20207;-78
2022/06/27 08:46:37;;;;;;;3.00;2.03;;;36.50;75.80;;;;;;5072012;28;20686;-78
2022/06/27 08:49:05;;;;;;;4.80;2.10;;;37.00;73.50;;;;;;5072343;28;20226;-78
2022/06/27 08:51:34;;;;;;;5.25;1.80;;;36.40;74.80;;;;;;5067067;28;20249;-79
2022/06/27 08:54:04;;;;;;;2.25;1.90;;;36.50;73.50;;;;;;5076452;28;20211;-78
2022/06/27 08:56:32;;;;;;;2.72;1.88;;;36.50;75.70;;;;;;5076100;28;20208;-76
2022/06/27 08:59:00;;;;;;;4.07;2.00;;;36.60;76.90;;;;;;5075190;28;20234;-78
2022/06/27 09:01:30;;;;;;;6.80;2.25;;;36.40;76.30;;;;;;5077720;28;20246;-77
2022/06/27 09:04:01;;;;;;;4.45;2.03;;;35.20;76.30;;;;;;5073898;28;20226;-78
2022/06/27 09:06:33;;;;;;;3.80;2.10;;;35.80;79.80;;;;;;5070829;28;20257;-78
2022/06/27 09:09:06;;;;;;;3.10;2.10;;;36.10;78.80;;;;;;5073259;28;20199;-78
2022/06/27 09:11:37;;;;;;;5.97;2.10;;;36.50;78.00;;;;;;5072894;28;20249;-78
2022/06/27 09:14:06;;;;;;;6.50;2.10;;;36.80;74.50;;;;;;5071211;28;20263;-76
2022/06/27 09:16:35;;;;;;;2.85;2.00;;;37.00;74.10;;;;;;5071843;28;20230;-75
2022/06/27 09:19:10;;;;;;;5.55;1.85;;;36.80;76.10;;;;;;5072061;28;20199;-77
2022/06/27 09:21:39;;;;;;;4.78;2.10;;;35.30;79.90;;;;;;5072070;28;20219;-79
2022/06/27 09:24:08;;;;;;;5.68;2.22;;;35.30;81.50;;;;;;5071633;28;20208;-78
2022/06/27 09:26:38;;;;;;;4.03;2.05;;;36.00;80.90;;;;;;5068935;28;20208;-76
2022/06/27 09:29:09;;;;;;;3.63;1.90;;;35.40;81.30;;;;;;5070910;28;20607;-78
2022/06/27 09:31:39;;;;;;;3.60;1.73;;;36.00;82.90;;;;;;5070346;28;20206;-80
2022/06/27 09:34:14;;;;;;;3.67;2.03;;;36.20;78.90;;;;;;5072549;28;20573;-78
2022/06/27 09:36:46;;;;;;;2.85;1.90;;;36.70;77.40;;;;;;5072884;28;20238;-77
2022/06/27 09:39:28;;;;;;;3.47;1.98;;;35.70;82.70;;;;;;5072344;28;20204;-76
2022/06/27 09:42:00;;;;;;;4.78;2.13;;;35.90;77.50;;;;;;5071760;28;20235;-77
2022/06/27 09:44:31;;;;;;;3.17;1.80;;;35.20;77.10;;;;;;5064800;28;20200;-77
2022/06/27 09:47:05;;;;;;;3.33;1.92;;;34.90;80.00;;;;;;5071044;28;20204;-76
2022/06/27 09:49:37;;;;;;;4.65;2.03;;;35.50;78.90;;;;;;5077152;28;20238;-75
2022/06/27 09:52:08;;;;;;;4.20;2.00;;;36.00;79.90;;;;;;5070975;28;20603;-75
2022/06/27 09:54:38;;;;;;;4.18;1.67;;;36.20;78.10;;;;;;5075454;28;20203;-75
2022/06/27 09:57:08;;;;;;;1.95;1.50;;;35.90;80.00;;;;;;5070472;28;20207;-77
2022/06/27 09:59:42;;;;;;;1.80;1.70;;;35.90;77.20;;;;;;5076897;28;20277;-76
2022/06/27 10:02:13;;;;;;;4.00;1.80;;;35.90;79.30;;;;;;5070281;28;20230;-76
2022/06/27 10:04:44;;;;;;;4.53;1.90;;;35.80;79.20;;;;;;5068981;28;20661;-76
2022/06/27 10:07:13;;;;;;;2.72;1.83;;;36.10;79.60;;;;;;5073532;28;20203;-76
2022/06/27 10:09:42;;;;;;;4.22;1.80;;;36.20;80.10;;;;;;5075960;28;20199;-74
2022/06/27 10:12:24;;;;;;;2.03;1.80;;;36.40;78.80;;;;;;5074357;28;20226;-76
2022/06/27 10:15:22;;;;;;;5.18;1.90;;;36.80;78.30;;;;;;5077410;28;20208;-75
2022/06/27 10:17:55;;;;;;;4.88;2.22;;;36.90;78.00;;;;;;5064206;28;20837;-76
2022/06/27 10:20:37;;;;;;;4.25;2.00;;;36.60;78.90;;;;;;5073068;28;20208;-76
2022/06/27 10:23:28;;;;;;;4.28;2.00;;;36.20;78.60;;;;;;5066300;28;20247;-76
2022/06/27 10:25:57;;;;;;;5.45;2.08;;;36.60;79.00;;;;;;5049270;28;20205;-78
2022/06/27 10:28:26;;;;;;;4.18;2.20;;;35.80;80.00;;;;;;5051544;28;20220;-76
2022/06/27 10:30:56;;;;;;;2.95;2.03;;;36.00;77.10;;;;;;5049099;28;20205;-75
2022/06/27 10:33:41;;;;;;;3.75;1.88;;;35.70;80.90;;;;;;5050775;28;20649;-76
2022/06/27 10:36:14;;;;;;;6.70;2.00;;;35.80;81.60;;;;;;5046174;28;20239;-76
2022/06/27 10:39:03;;;;;;;8.38;2.40;;;35.90;80.30;;;;;;5049487;28;20226;-76
2022/06/27 10:41:41;;;;;;;6.00;2.17;;;36.00;81.00;;;;;;5051827;28;20232;-78
2022/06/27 10:44:29;;;;;;;4.80;2.20;;;35.00;81.50;;;;;;5051615;28;20335;-77
2022/06/27 10:46:57;;;;;;;3.45;1.90;;;35.00;87.30;;;;;;5053982;28;20208;-76
2022/06/27 10:49:28;;;;;;;3.10;2.03;;;34.60;85.20;;;;;;5061700;28;20235;-77
2022/06/27 10:52:26;;;;;;;4.78;2.13;;;34.00;84.20;;;;;;5056580;28;20547;-74
2022/06/27 10:54:54;;;;;;;6.50;2.13;;;34.60;86.30;;;;;;5049524;28;20258;-76
2022/06/27 10:57:47;;;;;;;4.68;2.20;;;35.10;84.80;;;;;;5056615;28;20303;-78
2022/06/27 11:00:41;;;;;;;2.88;1.90;;;35.50;87.00;;;;;;5038923;28;20208;-77
2022/06/27 11:03:19;;;;;;;4.47;2.03;;;34.90;86.20;;;;;;5054035;28;20216;-75
2022/06/27 11:05:58;;;;;;;3.92;1.90;;;35.20;86.10;;;;;;5052219;28;20204;-76
2022/06/27 11:08:29;;;;;;;7.15;2.00;;;35.40;87.20;;;;;;5054020;28;20789;-77
2022/06/27 11:10:57;;;;;;;5.90;2.15;;;35.00;84.10;;;;;;5053818;28;20259;-76
2022/06/27 11:13:40;;;;;;;5.57;1.90;;;34.90;85.20;;;;;;5052996;28;20585;-76
2022/06/27 11:16:10;;;;;;;3.28;2.10;;;35.30;86.10;;;;;;5057418;28;20196;-77
2022/06/27 11:18:44;;;;;;;3.05;1.90;;;35.20;81.20;;;;;;5060437;28;20223;-77
2022/06/27 11:21:15;;;;;;;4.78;2.20;;;34.70;88.80;;;;;;5064660;28;20207;-77
2022/06/27 11:24:07;;;;;;;4.32;1.92;;;35.10;84.80;;;;;;5057342;28;20319;-78
2022/06/27 11:26:38;;;;;;;5.18;2.10;;;34.50;88.40;;;;;;5046345;28;20230;-75
2022/06/27 11:32:02;;;;;;;3.17;1.83;;;35.30;85.30;;;;;;5053664;28;20208;-77
2022/06/27 11:34:40;;;;;;;4.78;2.10;;;35.30;89.60;;;;;;5051088;28;20268;-75
2022/06/27 11:37:11;;;;;;;5.80;1.90;;;34.60;85.20;;;;;;5051812;28;20355;-77
2022/06/27 11:39:41;;;;;;;3.63;2.13;;;34.00;87.80;;;;;;5059936;28;20255;-77
2022/06/27 11:42:12;;;;;;;6.35;2.05;;;33.90;89.60;;;;;;5062649;28;20696;-77
2022/06/27 11:45:03;;;;;;;1.80;1.67;;;33.90;91.20;;;;;;5046794;28;20196;-76
2022/06/27 11:47:31;;;;;;;3.35;2.00;;;34.10;91.00;;;;;;5055016;28;20200;-77
2022/06/27 11:50:03;;;;;;;4.18;2.03;;;34.00;90.60;;;;;;5054071;28;20211;-76
2022/06/27 11:52:39;;;;;;;3.08;1.70;;;33.50;91.10;;;;;;5058494;28;20246;-79
2022/06/27 11:55:11;;;;;;;4.10;1.88;;;33.40;90.80;;;;;;5049181;28;20208;-78
2022/06/27 11:57:45;;;;;;;6.10;1.80;;;33.80;91.90;;;;;;5053238;28;20196;-77
2022/06/27 12:00:18;;;;;;;3.22;1.95;;;34.00;90.40;;;;;;5047716;28;20666;-75
2022/06/27 12:02:52;;;;;;;2.28;1.80;;;33.60;91.10;;;;;;5050636;28;20596;-76
2022/06/27 12:05:22;;;;;;;3.75;1.95;;;33.40;90.30;;;;;;5039559;28;20234;-77
2022/06/27 12:07:58;;;;;;;4.07;2.03;;;32.70;90.10;;;;;;5044159;28;20266;-75
2022/06/27 12:10:45;;;;;;;3.42;1.90;;;32.40;90.00;;;;;;5040503;28;20234;-76
2022/06/27 12:13:16;;;;;;;4.72;1.90;;;32.50;92.20;;;;;;5055067;28;20277;-76
2022/06/27 12:15:45;;;;;;;4.28;1.92;;;32.30;90.70;;;;;;5047539;28;20277;-76
2022/06/27 12:18:15;;;;;;;2.78;2.10;;;32.40;92.70;;;;;;5060857;28;20204;-78
2022/06/27 12:20:44;;;;;;;2.35;1.95;;;32.30;91.30;;;;;;5055466;28;20295;-77
2022/06/27 12:23:13;;;;;;;3.55;2.00;;;32.70;92.10;;;;;;5053687;28;20225;-76
2022/06/27 12:25:45;;;;;;;2.90;2.22;;;33.10;92.50;;;;;;5051929;28;20290;-74
2022/06/27 12:28:14;;;;;;;4.72;2.00;;;32.90;92.40;;;;;;5054921;28;20255;-76
2022/06/27 12:30:42;;;;;;;4.40;2.20;;;33.10;92.30;;;;;;5060565;28;20238;-74
2022/06/27 12:33:10;;;;;;;4.68;2.50;;;33.00;92.50;;;;;;5050989;28;20220;-78
2022/06/27 12:35:39;;;;;;;5.90;2.00;;;33.10;92.50;;;;;;5055981;28;20203;-77
2022/06/27 12:38:07;;;;;;;4.15;2.05;;;32.80;91.90;;;;;;5046381;28;20232;-75
2022/06/27 12:40:37;;;;;;;4.18;2.10;;;32.70;92.40;;;;;;5055492;28;20226;-76
2022/06/27 12:43:07;;;;;;;3.38;1.85;;;32.60;93.30;;;;;;5054799;28;20224;-76
2022/06/27 12:45:37;;;;;;;5.97;2.13;;;32.80;93.00;;;;;;5050002;28;20201;-75
2022/06/27 12:48:07;;;;;;;3.13;2.13;;;33.00;93.30;;;;;;5049678;28;20208;-76
2022/06/27 12:50:36;;;;;;;4.45;2.30;;;32.90;92.50;;;;;;5047439;28;20298;-78
2022/06/27 12:53:04;;;;;;;2.67;2.17;;;32.60;90.70;;;;;;5049224;28;20267;-77
2022/06/27 12:55:33;;;;;;;7.40;2.20;;;32.80;92.10;;;;;;5045031;28;20199;-76
2022/06/27 12:58:01;;;;;;;2.65;1.88;;;32.80;92.90;;;;;;5049745;28;20204;-75
2022/06/27 13:00:31;;;;;;;4.07;2.00;;;32.70;91.20;;;;;;5053082;28;20302;-75
2022/06/27 13:03:00;;;;;;;5.10;1.92;;;32.60;90.60;;;;;;5054955;28;20208;-76
2022/06/27 13:05:36;;;;;;;3.55;2.10;;;32.50;88.90;;;;;;5052761;28;20237;-77
2022/06/27 13:08:06;;;;;;;4.97;2.00;;;32.40;89.80;;;;;;5054475;28;20200;-78
2022/06/27 13:10:34;;;;;;;6.93;2.50;;;32.60;90.80;;;;;;5052105;28;20351;-77